createdAt,value
2022-11-30T00:00:18.559Z,58.10
2022-11-30T00:05:18.526Z,117.90
2022-11-30T00:10:18.450Z,79.30
2022-11-30T00:15:18.631Z,73.40
2022-11-30T00:20:18.344Z,113.60
2022-11-30T00:25:18.298Z,141.80
2022-11-30T05:00:30.030Z,174.70
2022-11-30T05:05:29.835Z,76.60
2022-11-30T05:10:29.755Z,58.80
2022-11-30T05:15:36.766Z,46.10
2022-11-30T05:20:29.655Z,42.70
2022-11-30T05:25:29.605Z,40.30
2022-11-30T05:30:29.536Z,39.80
2022-11-30T05:35:29.520Z,36.40
2022-11-30T05:40:29.452Z,41.50
2022-11-30T05:45:29.374Z,33.30
2022-11-30T05:50:29.335Z,36.20
2022-11-30T05:55:29.317Z,34.60
2022-11-30T06:00:29.214Z,30.50
2022-11-30T06:05:29.176Z,28.50
2022-11-30T06:10:29.126Z,27.50
2022-11-30T06:15:29.073Z,25.60
2022-11-30T06:20:29.010Z,22.10
2022-11-30T06:25:28.964Z,23.50
2022-11-30T06:30:28.908Z,28.10
2022-11-30T06:35:28.888Z,24.90
2022-11-30T06:40:28.812Z,25.30
2022-11-30T06:45:28.798Z,22.80
2022-11-30T06:50:28.693Z,25.10
2022-11-30T06:55:28.660Z,23.40
2022-11-30T07:00:28.633Z,24.50
2022-11-30T07:05:28.531Z,24.80
2022-11-30T07:10:28.579Z,22.90
2022-11-30T07:15:28.434Z,25.00
2022-11-30T07:20:28.480Z,26.70
2022-11-30T07:25:28.328Z,23.80
2022-11-30T07:30:28.339Z,25.10
2022-11-30T07:35:28.239Z,24.00
2022-11-30T07:40:28.170Z,25.70
2022-11-30T07:45:28.090Z,24.90
2022-11-30T07:50:28.064Z,26.00
2022-11-30T07:55:28.037Z,26.50
2022-11-30T08:00:27.950Z,30.40
2022-11-30T08:05:28.000Z,25.80
2022-11-30T08:10:27.851Z,25.10
2022-11-30T08:15:32.517Z,27.20
2022-11-30T08:20:28.732Z,31.80
2022-11-30T08:25:27.676Z,28.20
2022-11-30T08:30:27.926Z,34.00
2022-11-30T08:35:27.604Z,32.50
2022-11-30T08:40:27.513Z,32.40
2022-11-30T08:45:27.464Z,34.00
2022-11-30T08:50:27.397Z,35.10
2022-11-30T08:55:27.379Z,31.80
2022-11-30T09:00:27.332Z,35.50
2022-11-30T09:05:27.241Z,38.70
2022-11-30T09:10:27.196Z,35.70
2022-11-30T09:15:27.162Z,33.90
2022-11-30T09:20:27.074Z,33.50
2022-11-30T09:25:27.062Z,35.10
2022-11-30T09:30:27.044Z,35.50
2022-11-30T09:35:26.951Z,34.10
2022-11-30T09:40:29.870Z,32.70
2022-11-30T09:45:27.823Z,38.80
2022-11-30T09:50:26.779Z,40.10
2022-11-30T09:55:26.768Z,40.60
2022-11-30T10:00:26.653Z,37.70
2022-11-30T10:05:26.713Z,36.30
2022-11-30T10:10:34.122Z,41.40
2022-11-30T10:15:27.581Z,39.30
2022-11-30T10:20:26.439Z,45.90
2022-11-30T10:25:26.396Z,41.20
2022-11-30T10:30:26.359Z,47.70
2022-11-30T10:35:26.303Z,38.40
2022-11-30T10:40:26.233Z,43.00
2022-11-30T10:45:26.191Z,45.10
2022-11-30T10:50:26.143Z,44.40
2022-11-30T10:55:26.135Z,45.20
2022-11-30T11:00:26.018Z,50.20
2022-11-30T11:05:25.991Z,45.70
2022-11-30T11:10:25.900Z,49.40
2022-11-30T11:15:33.158Z,48.30
2022-11-30T11:20:25.805Z,50.60
2022-11-30T11:25:26.019Z,44.40
2022-11-30T11:30:25.697Z,46.80
2022-11-30T11:35:25.681Z,46.60
2022-11-30T11:40:25.594Z,50.40
2022-11-30T11:45:25.524Z,47.00
2022-11-30T11:50:57.891Z,47.60
2022-11-30T11:55:26.458Z,45.20
2022-11-30T12:00:25.417Z,44.10
2022-11-30T12:05:25.329Z,45.50
2022-11-30T12:15:26.236Z,47.30
2022-11-30T12:20:25.166Z,42.90
2022-11-30T12:25:25.323Z,43.70
2022-11-30T12:30:25.045Z,47.30
2022-11-30T12:35:25.033Z,45.20
2022-11-30T12:40:24.953Z,45.90
2022-11-30T12:45:24.896Z,45.60
2022-11-30T12:50:24.846Z,45.70
2022-11-30T12:55:24.871Z,47.30
2022-11-30T13:00:24.738Z,46.40
2022-11-30T13:05:24.679Z,48.10
2022-11-30T13:10:24.634Z,46.80
2022-11-30T13:15:24.598Z,45.90
2022-11-30T13:20:24.521Z,48.10
2022-11-30T13:25:45.274Z,46.10
2022-11-30T13:30:25.413Z,47.00
2022-11-30T13:35:24.382Z,44.50
2022-11-30T13:40:24.308Z,46.70
2022-11-30T13:45:24.256Z,48.30
2022-11-30T13:50:24.203Z,50.60
2022-11-30T13:55:24.172Z,50.10
2022-11-30T14:00:24.092Z,49.20
2022-11-30T14:05:24.033Z,51.70
2022-11-30T14:10:23.983Z,50.00
2022-11-30T14:15:23.954Z,53.90
2022-11-30T14:20:23.876Z,53.30
2022-11-30T14:25:23.827Z,50.90
2022-11-30T14:30:23.764Z,47.50
2022-11-30T14:35:23.751Z,42.60
2022-11-30T14:40:23.658Z,48.80
2022-11-30T14:45:23.618Z,44.60
2022-11-30T14:50:23.553Z,44.70
2022-11-30T14:55:23.566Z,40.80
2022-11-30T15:00:23.445Z,39.90
2022-11-30T15:05:23.396Z,41.40
2022-11-30T15:10:28.077Z,37.60
2022-11-30T15:15:24.319Z,39.90
2022-11-30T15:20:23.233Z,35.10
2022-11-30T15:25:23.177Z,34.40
2022-11-30T15:30:23.133Z,32.40
2022-11-30T15:35:23.093Z,33.10
2022-11-30T15:40:23.019Z,34.60
2022-11-30T15:45:22.966Z,28.90
2022-11-30T15:50:22.912Z,25.70
2022-11-30T15:55:22.955Z,23.30
2022-11-30T16:00:22.803Z,21.40
2022-11-30T16:05:22.755Z,19.70
2022-11-30T16:10:22.699Z,16.30
2022-11-30T16:15:22.688Z,17.20
2022-11-30T16:20:22.596Z,19.00
2022-11-30T16:25:22.539Z,21.90
2022-11-30T16:30:22.491Z,23.10
2022-11-30T16:35:22.450Z,24.70
2022-11-30T16:40:22.378Z,24.70
2022-11-30T16:45:22.527Z,28.20
2022-11-30T16:50:22.273Z,26.20
2022-11-30T16:55:22.241Z,25.60
2022-11-30T17:00:22.166Z,26.50
2022-11-30T17:05:22.114Z,27.10
2022-11-30T17:10:22.056Z,28.00
2022-11-30T17:15:29.065Z,27.60
2022-11-30T17:20:21.947Z,24.50
2022-11-30T17:25:21.903Z,23.10
2022-11-30T17:30:21.851Z,24.30
2022-11-30T17:35:21.814Z,22.70
2022-11-30T17:40:21.740Z,23.80
2022-11-30T17:45:21.683Z,23.80
2022-11-30T17:50:21.650Z,21.40
2022-11-30T17:55:21.590Z,25.20
2022-11-30T18:00:21.526Z,23.60
2022-11-30T18:05:21.476Z,21.90
2022-11-30T18:10:21.416Z,19.10
2022-11-30T18:15:21.394Z,22.80
2022-11-30T18:20:21.314Z,19.10
2022-11-30T18:25:21.270Z,22.00
2022-11-30T18:30:21.197Z,18.70
2022-11-30T18:35:21.171Z,23.00
2022-11-30T18:40:21.097Z,18.60
2022-11-30T18:45:21.042Z,20.30
2022-11-30T18:50:20.995Z,19.90
2022-11-30T18:55:20.972Z,24.00
2022-11-30T19:00:20.884Z,19.90
2022-11-30T19:05:21.267Z,21.10
2022-11-30T19:10:20.771Z,20.80
2022-11-30T19:15:20.746Z,15.50
2022-11-30T19:20:20.678Z,24.30
2022-11-30T19:25:20.619Z,21.20
2022-11-30T19:30:20.574Z,17.40
2022-11-30T19:35:20.533Z,16.40
2022-11-30T19:40:20.458Z,17.70
2022-11-30T19:45:20.405Z,16.20
2022-11-30T19:50:20.355Z,18.90
2022-11-30T19:55:20.329Z,16.30
2022-11-30T20:00:20.243Z,17.70
2022-11-30T20:05:20.189Z,23.10
2022-11-30T20:10:20.140Z,17.60
2022-11-30T20:15:20.104Z,18.00
2022-11-30T20:20:20.033Z,18.20
2022-11-30T20:25:19.985Z,16.70
2022-11-30T20:30:19.933Z,20.50
2022-11-30T20:35:19.914Z,18.50
2022-11-30T20:40:19.816Z,21.90
2022-11-30T20:45:19.764Z,17.20
2022-11-30T20:50:19.710Z,20.30
2022-11-30T20:55:19.675Z,21.40
2022-11-30T21:00:19.604Z,19.80
2022-11-30T21:05:19.552Z,20.40
2022-11-30T21:10:19.499Z,20.30
2022-11-30T21:15:19.469Z,18.20
2022-11-30T21:20:19.394Z,17.60
2022-11-30T21:25:19.336Z,19.10
2022-11-30T21:30:19.283Z,16.10
2022-11-30T21:35:19.254Z,14.80
2022-11-30T21:40:19.173Z,13.90
2022-11-30T21:45:19.123Z,14.30
2022-11-30T21:50:22.984Z,14.50
2022-11-30T21:55:20.041Z,14.20
2022-11-30T22:00:18.959Z,14.20
2022-11-30T22:05:18.913Z,17.40
2022-11-30T22:10:18.870Z,16.20
2022-11-30T22:15:18.826Z,14.90
2022-11-30T22:20:18.754Z,15.20
2022-11-30T22:25:18.702Z,14.00
2022-11-30T22:30:18.646Z,14.90
2022-11-30T22:35:18.608Z,15.90
2022-11-30T22:40:18.534Z,14.10
2022-11-30T22:45:18.501Z,13.50
2022-11-30T22:50:18.467Z,15.10
2022-11-30T22:55:18.526Z,14.80
2022-11-30T23:00:18.323Z,12.70
2022-11-30T23:05:18.269Z,20.70
2022-11-30T23:10:18.217Z,14.00
2022-11-30T23:15:18.189Z,15.90
2022-11-30T23:20:25.145Z,13.00
2022-11-30T23:25:18.056Z,14.00
2022-11-30T23:30:17.998Z,14.60
2022-11-30T23:35:17.976Z,19.30
2022-11-30T23:40:17.898Z,18.60
2022-11-30T23:45:17.841Z,13.80
2022-11-30T23:50:17.824Z,13.60
2022-11-30T23:55:17.750Z,19.30
